Thursday, October 19, 2017, 2:12 PM EDT

KFYJ, West Point, Middle Peninsula Regional Airport

Location: Shacklefords, VA, United States Lat: 37.521
Local Time: 2:12 PM EDT (18:12 GMT) Lon: -76.764
Time Zone: US/Eastern Elev: 22 ft

Show me the last for .
Show Decoded

2017-10-19 13:35 METAR KFYJ 191735Z AUTO 25007KT 10SM CLR 22/10 A3025 RMK AO2 T02200104 =
2017-10-19 13:15 METAR KFYJ 191715Z AUTO 22004KT 10SM CLR 21/11 A3026 RMK AO2 T02090109 =
2017-10-19 12:55 METAR KFYJ 191655Z AUTO 15004KT 10SM CLR 21/11 A3027 RMK AO2 T02050114 =
2017-10-19 12:35 METAR KFYJ 191635Z AUTO 23006KT 10SM CLR 20/11 A3028 RMK AO2 T02020112 =
2017-10-19 12:15 METAR KFYJ 191615Z AUTO 22005KT 10SM CLR 20/11 A3030 RMK AO2 T01980110 =
2017-10-19 11:55 METAR KFYJ 191555Z AUTO 21005KT 10SM CLR 20/11 A3031 RMK AO2 T01950113 =
2017-10-19 11:35 METAR KFYJ 191535Z AUTO 21007KT 10SM CLR 19/12 A3031 RMK AO2 T01940121 =
2017-10-19 11:15 METAR KFYJ 191515Z AUTO 19004KT 10SM CLR 19/14 A3032 RMK AO2 T01850140 =
2017-10-19 10:15 METAR KFYJ 191415Z AUTO 24003KT 10SM CLR A3033 RMK AO2 =
2017-10-19 09:55 METAR KFYJ 191355Z AUTO 00000KT 10SM CLR A3032 RMK AO2 =
2017-10-19 09:35 METAR KFYJ 191335Z AUTO 00000KT 10SM BKN001 A3032 RMK AO2 =
2017-10-19 09:15 METAR KFYJ 191315Z AUTO 00000KT 1/2SM OVC001 A3032 RMK AO2 =
2017-10-19 08:55 METAR KFYJ 191255Z AUTO 00000KT M1/4SM OVC001 10/10 A3032 RMK AO2 T01000100 =
2017-10-19 08:35 METAR KFYJ 191235Z AUTO 00000KT M1/4SM OVC001 08/08 A3032 RMK AO2 T00820082 =
2017-10-19 08:15 METAR KFYJ 191215Z AUTO 00000KT 1/4SM OVC001 07/07 A3032 RMK AO2 T00670067 =
2017-10-19 07:55 METAR KFYJ 191155Z AUTO 00000KT M1/4SM BKN001 05/05 A3032 RMK AO2 T00540054 =
2017-10-19 07:35 METAR KFYJ 191135Z AUTO 00000KT 1/4SM BKN001 05/05 A3031 RMK AO2 T00500050 =
2017-10-19 07:15 METAR KFYJ 191115Z AUTO 00000KT 1/4SM OVC001 05/05 A3031 RMK AO2 T00490049 =
2017-10-19 06:55 METAR KFYJ 191055Z AUTO 00000KT 1SM BKN001 A3031 RMK AO2 =
2017-10-19 06:35 METAR KFYJ 191035Z AUTO 00000KT 10SM CLR 06/06 A3031 RMK AO2 T00560056 =
2017-10-19 06:15 METAR KFYJ 191015Z AUTO 00000KT 1/2SM VV005 05/05 A3031 RMK AO2 T00520052 =
2017-10-19 05:55 METAR KFYJ 190955Z AUTO 00000KT 1/4SM VV002 05/05 A3031 RMK AO2 T00450045 =
2017-10-19 05:35 METAR KFYJ 190935Z AUTO 00000KT 2 1/2SM 04/04 A3031 RMK AO2 SKY OBSCURED
                 T00440044 =
2017-10-19 05:15 METAR KFYJ 190915Z AUTO 00000KT 10SM CLR 05/05 A3031 RMK AO2 T00500050 =
2017-10-19 04:55 METAR KFYJ 190855Z AUTO 00000KT 1/2SM VV005 05/05 A3030 RMK AO2 T00470047 =
2017-10-19 04:35 METAR KFYJ 190835Z AUTO 00000KT 3SM CLR 05/05 A3031 RMK AO2 T00460046 =
2017-10-19 04:15 METAR KFYJ 190815Z AUTO 00000KT 1/2SM VV005 05/05 A3031 RMK AO2 T00520052 =
2017-10-19 03:55 METAR KFYJ 190755Z AUTO 00000KT 1/2SM VV005 05/05 A3031 RMK AO2 T00450045 =
2017-10-19 03:35 METAR KFYJ 190735Z AUTO 00000KT 10SM CLR 06/06 A3032 RMK AO2 T00560056 =
2017-10-19 03:15 METAR KFYJ 190715Z AUTO 00000KT 10SM CLR 06/06 A3032 RMK AO2 T00550055 =
2017-10-19 02:55 METAR KFYJ 190655Z AUTO 00000KT 10SM CLR 05/05 A3032 RMK AO2 T00520052 =
2017-10-19 02:35 METAR KFYJ 190635Z AUTO 00000KT 10SM CLR 05/05 A3032 RMK AO2 T00490049 =
2017-10-19 02:15 METAR KFYJ 190615Z AUTO 00000KT 10SM CLR 06/06 A3033 RMK AO2 T00590059 =
2017-10-19 01:55 METAR KFYJ 190555Z AUTO 00000KT 10SM CLR 06/06 A3034 RMK AO2 T00580058 10094
                 20047 =
2017-10-19 01:35 METAR KFYJ 190535Z AUTO 00000KT 10SM CLR 05/05 A3034 RMK AO2 T00470047 =
2017-10-19 01:15 METAR KFYJ 190515Z AUTO 00000KT 10SM CLR 05/05 A3034 RMK AO2 T00530053 =
2017-10-19 00:55 METAR KFYJ 190455Z AUTO 00000KT 10SM CLR 06/06 A3034 RMK AO2 T00560056 =
2017-10-19 00:35 METAR KFYJ 190435Z AUTO 00000KT 10SM CLR 06/06 A3034 RMK AO2 T00550055 =
2017-10-19 00:15 METAR KFYJ 190415Z AUTO 00000KT 10SM CLR 05/05 A3034 RMK AO2 T00530053 =
2017-10-18 23:55 METAR KFYJ 190355Z AUTO 00000KT 10SM CLR 06/06 A3035 RMK AO2 T00600060 =
2017-10-18 23:35 METAR KFYJ 190335Z AUTO 00000KT 10SM CLR 06/06 A3035 RMK AO2 T00640064 =
2017-10-18 23:15 METAR KFYJ 190315Z AUTO 00000KT 10SM CLR 06/06 A3035 RMK AO2 T00630063 =
2017-10-18 22:55 METAR KFYJ 190255Z AUTO 00000KT 10SM CLR 06/06 A3035 RMK AO2 T00600060 =
2017-10-18 22:35 METAR KFYJ 190235Z AUTO 00000KT 10SM CLR 07/07 A3035 RMK AO2 T00700070 =
2017-10-18 22:15 METAR KFYJ 190215Z AUTO 00000KT 10SM CLR 07/07 A3035 RMK AO2 T00680068 =
2017-10-18 21:55 METAR KFYJ 190155Z AUTO 00000KT 10SM CLR 07/07 A3035 RMK AO2 T00730073 =
2017-10-18 21:35 METAR KFYJ 190135Z AUTO 00000KT 10SM CLR 08/08 A3036 RMK AO2 T00760076 =
2017-10-18 21:15 METAR KFYJ 190115Z AUTO 00000KT 10SM CLR 07/07 A3035 RMK AO2 T00720072 =
2017-10-18 20:55 METAR KFYJ 190055Z AUTO 00000KT 10SM CLR 08/08 A3035 RMK AO2 T00750075 =
2017-10-18 20:35 METAR KFYJ 190035Z AUTO 00000KT 10SM CLR 08/08 A3035 RMK AO2 T00840080 =
2017-10-18 20:15 METAR KFYJ 190015Z AUTO 00000KT 10SM CLR 09/08 A3035 RMK AO2 T00850080 =
2017-10-18 19:55 METAR KFYJ 182355Z AUTO 00000KT 10SM CLR 10/09 A3034 RMK AO2 T00950087 10195
                 20094 =
2017-10-18 19:35 METAR KFYJ 182335Z AUTO 00000KT 10SM CLR 10/09 A3034 RMK AO2 T01010088 =
2017-10-18 19:15 METAR KFYJ 182315Z AUTO 00000KT 10SM CLR 11/09 A3034 RMK AO2 T01120090 =
2017-10-18 18:55 METAR KFYJ 182255Z AUTO 00000KT 10SM CLR 12/10 A3034 RMK AO2 T01150098 =
2017-10-18 18:35 METAR KFYJ 182235Z AUTO 00000KT 10SM CLR 13/08 A3034 RMK AO2 T01260081 =
2017-10-18 18:15 METAR KFYJ 182215Z AUTO 00000KT 10SM CLR 14/08 A3034 RMK AO2 T01430077 =
2017-10-18 17:55 METAR KFYJ 182155Z AUTO 11003KT 10SM CLR 17/05 A3033 RMK AO2 T01690048 =
2017-10-18 17:35 METAR KFYJ 182135Z AUTO 13003KT 10SM CLR 18/02 A3034 RMK AO2 T01800020 =
2017-10-18 17:15 METAR KFYJ 182115Z AUTO 15004KT 10SM CLR 19/01 A3034 RMK AO2 T01850014 =
2017-10-18 16:55 METAR KFYJ 182055Z AUTO 15004KT 10SM CLR 19/04 A3034 RMK AO2 T01880044 =
2017-10-18 16:35 METAR KFYJ 182035Z AUTO 14004KT 10SM CLR 19/05 A3035 RMK AO2 T01900051 =
2017-10-18 16:15 METAR KFYJ 182015Z AUTO 17006KT 10SM CLR 19/05 A3035 RMK AO2 T01900054 =
2017-10-18 15:55 METAR KFYJ 181955Z AUTO 18006KT 10SM CLR 20/04 A3036 RMK AO2 T01950044 =
2017-10-18 15:35 METAR KFYJ 181935Z AUTO 19005KT 10SM CLR 20/03 A3036 RMK AO2 T01950034 =
2017-10-18 15:15 METAR KFYJ 181915Z AUTO 19006KT 10SM CLR 19/05 A3037 RMK AO2 T01940053 =
2017-10-18 14:55 METAR KFYJ 181855Z AUTO 19005KT 10SM CLR 19/06 A3037 RMK AO2 T01940060 =
2017-10-18 14:35 METAR KFYJ 181835Z AUTO 22004KT 10SM CLR 19/05 A3037 RMK AO2 T01900048 =
2017-10-18 14:15 METAR KFYJ 181815Z AUTO 23004KT 10SM CLR 19/06 A3037 RMK AO2 T01850060 =

Support USWX by starting your Amazon purchase here.